createdAt,value
2022-10-20T00:01:22.365Z,83.83
2022-10-20T00:06:28.062Z,72.37
2022-10-20T00:11:31.308Z,83.70
2022-10-20T00:16:37.148Z,87.07
2022-10-20T00:21:39.564Z,77.23
2022-10-20T00:26:41.899Z,68.73
2022-10-20T00:31:44.525Z,66.97
2022-10-20T00:36:50.401Z,72.37
2022-10-20T00:41:53.821Z,62.17
2022-10-20T00:46:57.217Z,57.33
2022-10-20T00:52:00.045Z,60.07
2022-10-20T01:02:10.650Z,83.60
2022-10-20T01:07:13.048Z,69.13
2022-10-20T01:12:22.598Z,72.47
2022-10-20T01:17:43.006Z,75.33
2022-10-20T01:22:54.255Z,78.37
2022-10-20T01:28:05.587Z,81.77
2022-10-20T01:33:20.702Z,84.87
2022-10-20T01:38:23.091Z,75.30
2022-10-20T01:43:29.730Z,92.23
2022-10-20T01:48:34.899Z,78.03
2022-10-20T01:53:37.763Z,82.87
2022-10-20T01:59:17.702Z,87.87
2022-10-20T02:04:28.083Z,71.13
2022-10-20T02:09:40.988Z,76.03
2022-10-20T02:14:45.268Z,72.00
2022-10-20T02:19:51.688Z,69.57
2022-10-20T02:24:54.149Z,66.37
2022-10-20T02:30:07.121Z,67.23
2022-10-20T02:35:20.693Z,60.90
2022-10-20T02:40:23.268Z,58.10
2022-10-20T02:45:25.714Z,58.97
2022-10-20T02:50:28.092Z,59.83
2022-10-20T02:55:30.658Z,58.07
2022-10-20T03:00:33.091Z,54.03
2022-10-20T03:05:40.467Z,59.80
2022-10-20T03:10:43.153Z,70.43
2022-10-20T03:15:45.611Z,60.43
2022-10-20T03:20:51.591Z,63.93
2022-10-20T03:25:53.976Z,56.70
2022-10-20T03:30:56.730Z,49.30
2022-10-20T03:35:59.137Z,58.57
2022-10-20T03:46:06.488Z,57.83
2022-10-20T03:51:10.714Z,56.03
2022-10-20T03:56:18.156Z,52.13
2022-10-20T04:01:24.552Z,50.27
2022-10-20T04:06:27.071Z,48.40
2022-10-20T04:11:29.464Z,48.73
2022-10-20T04:16:31.890Z,46.63
2022-10-20T04:21:34.261Z,46.80
2022-10-20T04:26:36.666Z,50.40
2022-10-20T04:31:39.026Z,49.10
2022-10-20T04:36:41.394Z,48.43
2022-10-20T04:41:44.026Z,48.70
2022-10-20T04:46:46.498Z,48.87
2022-10-20T04:51:49.197Z,52.27
2022-10-20T04:56:52.033Z,55.00
2022-10-20T05:01:54.468Z,72.87
2022-10-20T05:06:56.973Z,54.73
2022-10-20T05:11:59.942Z,60.83
2022-10-20T05:17:04.215Z,71.10
2022-10-20T05:22:08.945Z,70.27
2022-10-20T05:27:11.376Z,71.87
2022-10-20T05:32:13.805Z,77.13
2022-10-20T05:37:16.211Z,73.03
2022-10-20T05:42:18.604Z,69.67
2022-10-20T05:47:20.944Z,111.90
2022-10-20T05:52:23.330Z,103.87
2022-10-20T05:57:26.263Z,79.17
2022-10-20T06:02:28.589Z,84.37
2022-10-20T06:07:30.999Z,80.73
2022-10-20T06:12:35.602Z,85.13
2022-10-20T06:17:38.076Z,93.13
2022-10-20T06:22:40.482Z,79.37
2022-10-20T06:27:44.569Z,81.30
2022-10-20T06:32:46.928Z,78.03
2022-10-20T06:37:49.332Z,55.57
2022-10-20T06:42:52.039Z,50.57
2022-10-20T06:47:54.422Z,40.70
2022-10-20T06:52:59.244Z,41.20
2022-10-20T06:58:01.969Z,44.37
2022-10-20T07:03:04.693Z,40.10
2022-10-20T07:08:07.149Z,51.90
2022-10-20T07:13:09.565Z,51.63
2022-10-20T07:18:14.461Z,41.97
2022-10-20T07:23:16.998Z,32.67
2022-10-20T07:28:25.527Z,35.87
2022-10-20T07:33:30.692Z,34.00
2022-10-20T07:38:36.582Z,33.53
2022-10-20T07:43:40.030Z,30.67
2022-10-20T07:48:45.488Z,26.77
2022-10-20T07:53:49.362Z,31.00
2022-10-20T07:58:52.384Z,37.70
2022-10-20T08:03:54.777Z,27.77
2022-10-20T08:08:57.322Z,35.83
2022-10-20T08:13:59.895Z,36.67
2022-10-20T08:24:21.653Z,30.90
2022-10-20T08:29:24.133Z,22.27
2022-10-20T08:34:28.931Z,24.13
2022-10-20T08:39:31.432Z,20.13
2022-10-20T08:44:36.698Z,16.27
2022-10-20T08:49:39.212Z,17.10
2022-10-20T08:54:41.993Z,14.87
2022-10-20T08:59:44.533Z,20.87
2022-10-20T09:04:57.791Z,16.40
2022-10-20T09:10:37.827Z,17.63
2022-10-20T09:15:40.345Z,15.10
2022-10-20T09:20:49.000Z,28.50
2022-10-20T09:25:53.042Z,24.03
2022-10-20T09:30:56.265Z,15.63
2022-10-20T09:36:05.709Z,16.90
2022-10-20T09:41:18.921Z,17.40
2022-10-20T09:46:24.717Z,19.83
2022-10-20T09:51:29.491Z,18.57
2022-10-20T09:56:41.438Z,13.83
2022-10-20T10:01:57.437Z,17.40
2022-10-20T10:06:59.945Z,11.27
2022-10-20T10:12:11.393Z,8.37
2022-10-20T10:17:48.908Z,10.03
2022-10-20T10:22:51.576Z,9.57
2022-10-20T10:28:06.998Z,10.50
2022-10-20T10:33:27.707Z,7.90
2022-10-20T10:38:30.235Z,10.00
2022-10-20T10:43:51.874Z,11.03
2022-10-20T10:49:19.116Z,11.10
2022-10-20T10:54:35.006Z,4.53
2022-10-20T10:59:42.652Z,4.20
2022-10-20T11:05:22.700Z,7.57
2022-10-20T11:10:30.955Z,4.77
2022-10-20T11:16:04.111Z,4.93
2022-10-20T11:21:45.322Z,6.03
2022-10-20T11:26:53.466Z,8.53
2022-10-20T11:32:12.495Z,5.47
2022-10-20T11:37:25.645Z,4.67
2022-10-20T11:42:46.057Z,3.00
2022-10-20T11:47:51.164Z,4.17
2022-10-20T11:53:04.111Z,4.17
2022-10-20T11:58:25.005Z,4.43
2022-10-20T12:04:02.978Z,4.03
2022-10-20T12:09:32.862Z,5.13
2022-10-20T12:15:04.147Z,7.37
2022-10-20T12:20:34.381Z,6.53
2022-10-20T12:25:40.422Z,6.87
2022-10-20T12:30:44.647Z,5.97
2022-10-20T12:36:33.113Z,6.60
2022-10-20T12:41:43.333Z,8.30
2022-10-20T12:47:19.829Z,7.50
2022-10-20T12:52:27.329Z,10.30
2022-10-20T12:57:35.490Z,11.77
2022-10-20T13:02:54.534Z,12.17
2022-10-20T13:08:00.529Z,17.67
2022-10-20T13:13:02.930Z,13.07
2022-10-20T13:18:20.439Z,16.00
2022-10-20T13:23:49.913Z,17.37
2022-10-20T13:28:54.863Z,10.60
2022-10-20T13:34:21.125Z,12.17
2022-10-20T13:39:36.930Z,11.50
2022-10-20T13:44:44.749Z,11.63
2022-10-20T13:50:10.993Z,14.10
2022-10-20T13:55:22.406Z,18.40
2022-10-20T14:00:29.153Z,85.37
2022-10-20T14:05:39.232Z,16.53
2022-10-20T14:10:49.583Z,10.00
2022-10-20T14:15:55.334Z,15.80
2022-10-20T14:21:02.939Z,8.87
2022-10-20T14:26:11.580Z,10.53
2022-10-20T14:31:14.742Z,17.13
2022-10-20T14:36:28.772Z,11.63
2022-10-20T14:41:33.756Z,9.77
2022-10-20T14:46:39.895Z,12.53
2022-10-20T14:51:53.496Z,12.80
2022-10-20T14:56:57.606Z,36.33
2022-10-20T15:02:10.080Z,19.03
2022-10-20T15:07:14.852Z,22.23
2022-10-20T15:12:37.381Z,17.77
2022-10-20T15:17:43.439Z,21.33
2022-10-20T15:22:45.834Z,19.20
2022-10-20T15:27:48.292Z,18.43
2022-10-20T15:32:50.778Z,26.40
2022-10-20T15:37:54.259Z,21.13
2022-10-20T15:42:56.657Z,24.67
2022-10-20T15:47:59.039Z,23.37
2022-10-20T15:53:01.491Z,41.83
2022-10-20T15:58:04.452Z,39.37
2022-10-20T16:03:06.885Z,26.23
2022-10-20T16:08:10.538Z,28.30
2022-10-20T16:13:13.241Z,29.37
2022-10-20T16:18:15.685Z,36.67
2022-10-20T16:23:18.095Z,40.27
2022-10-20T16:28:20.726Z,37.33
2022-10-20T16:33:23.097Z,27.80
2022-10-20T16:38:25.517Z,36.10
2022-10-20T16:43:28.949Z,302.67
2022-10-20T16:48:32.864Z,69.30
2022-10-20T16:53:37.544Z,97.67
2022-10-20T16:58:39.958Z,58.20
2022-10-20T17:03:45.361Z,108.87
2022-10-20T17:08:48.317Z,79.00
2022-10-20T17:13:51.654Z,60.93
2022-10-20T17:18:54.650Z,82.10
2022-10-20T17:23:57.167Z,118.77
2022-10-20T17:29:01.405Z,100.63
2022-10-20T17:34:04.336Z,116.20
2022-10-20T17:39:11.144Z,52.67
2022-10-20T17:44:13.862Z,68.77
2022-10-20T17:49:16.278Z,58.63
2022-10-20T17:54:18.722Z,79.27
2022-10-20T17:59:21.163Z,132.00
2022-10-20T18:04:23.609Z,74.53
2022-10-20T18:09:26.028Z,66.97
2022-10-20T18:14:28.593Z,51.77
2022-10-20T18:19:31.108Z,49.43
2022-10-20T18:24:34.117Z,45.93
2022-10-20T18:29:36.744Z,53.20
2022-10-20T18:34:39.496Z,66.13
2022-10-20T18:39:42.161Z,51.83
2022-10-20T18:44:44.742Z,38.87
2022-10-20T18:49:47.292Z,35.63
2022-10-20T18:54:49.837Z,28.17
2022-10-20T18:59:52.496Z,33.07
2022-10-20T19:04:55.297Z,27.27
2022-10-20T19:09:57.867Z,28.80
2022-10-20T19:15:00.842Z,29.63
2022-10-20T19:20:03.507Z,30.80
2022-10-20T19:25:06.592Z,35.77
2022-10-20T19:30:09.628Z,30.30
2022-10-20T19:35:12.333Z,31.07
2022-10-20T19:40:14.917Z,31.83
2022-10-20T19:45:17.537Z,30.03
2022-10-20T19:50:20.140Z,31.40
2022-10-20T19:55:22.764Z,27.47
2022-10-20T20:00:25.391Z,27.17
2022-10-20T20:05:27.944Z,27.87
2022-10-20T20:10:30.949Z,29.43
2022-10-20T20:15:34.215Z,24.87
2022-10-20T20:20:39.902Z,25.93
2022-10-20T20:25:45.983Z,25.07
2022-10-20T20:31:10.783Z,25.33
2022-10-20T20:36:13.808Z,23.63
2022-10-20T20:41:18.040Z,27.77
2022-10-20T20:46:26.870Z,26.00
2022-10-20T20:51:35.095Z,29.30
2022-10-20T20:56:37.643Z,26.73
2022-10-20T21:01:40.376Z,25.00
2022-10-20T21:07:01.259Z,25.40
2022-10-20T21:12:04.726Z,26.33
2022-10-20T21:17:07.537Z,26.37
2022-10-20T21:22:10.324Z,26.13
2022-10-20T21:27:12.958Z,32.40
2022-10-20T21:32:18.494Z,42.87
2022-10-20T21:37:21.706Z,30.47
2022-10-20T21:42:24.251Z,33.80
2022-10-20T21:47:26.812Z,31.07
2022-10-20T21:52:29.425Z,29.60
2022-10-20T21:57:32.002Z,22.70
2022-10-20T22:02:34.574Z,23.77
2022-10-20T22:07:37.314Z,23.37
2022-10-20T22:12:40.079Z,21.73
2022-10-20T22:17:42.677Z,23.57
2022-10-20T22:22:45.199Z,23.20
2022-10-20T22:27:47.783Z,28.03
2022-10-20T22:32:50.345Z,24.83
2022-10-20T22:37:53.112Z,23.00
2022-10-20T22:42:55.686Z,23.27
2022-10-20T22:47:58.593Z,22.47
2022-10-20T22:53:01.095Z,28.40
2022-10-20T22:58:04.312Z,21.90
2022-10-20T23:03:06.804Z,20.20
2022-10-20T23:08:09.212Z,25.90
2022-10-20T23:13:11.602Z,21.47
2022-10-20T23:18:14.518Z,19.43
2022-10-20T23:23:16.933Z,20.50
2022-10-20T23:28:19.527Z,19.73
2022-10-20T23:33:21.894Z,23.87
2022-10-20T23:38:24.274Z,21.10
2022-10-20T23:43:26.910Z,20.80
2022-10-20T23:48:29.402Z,22.23
2022-10-20T23:53:32.373Z,23.93
2022-10-20T23:58:34.997Z,20.63
